Time;durP1;ratioP1;P1;durP2;ratioP2;P2;SDS_P1;SDS_P2;PMS_P1;PMS_P2;Temp;Humidity;BMP_temperature;BMP_pressure;BME280_temperature;BME280_humidity;BME280_pressure;Samples;Min_cycle;Max_cycle;Signal;HPM_P1;HPM_P2
2023/03/19 00:02:16;;;;;;;9.50;5.40;;;;;;;;;;5076718;28;20020;-89
2023/03/19 00:04:42;;;;;;;9.98;4.85;;;;;;;;;;5076335;28;20485;-86
2023/03/19 00:07:07;;;;;;;8.88;4.10;;;;;;;;;;5077596;28;20040;-88
2023/03/19 00:09:33;;;;;;;8.27;3.80;;;;;;;;;;5079489;28;20502;-88
2023/03/19 00:11:58;;;;;;;10.30;5.05;;;;;;;;;;5078141;28;20036;-89
2023/03/19 00:14:24;;;;;;;10.80;5.60;;;;;;;;;;5080611;28;20028;-87
2023/03/19 00:16:50;;;;;;;8.75;3.78;;;;;;;;;;5079983;28;20030;-87
2023/03/19 00:19:15;;;;;;;7.97;3.60;;;;;;;;;;5079806;28;20036;-87
2023/03/19 00:21:41;;;;;;;6.75;3.60;;;;;;;;;;5080258;28;20043;-86
2023/03/19 00:24:08;;;;;;;7.90;3.90;;;;;;;;;;5079374;28;20036;-86
2023/03/19 00:26:35;;;;;;;6.35;3.85;;;;;;;;;;5078603;28;20646;-86
2023/03/19 00:29:02;;;;;;;6.65;3.55;;;;;;;;;;5077924;28;20040;-86
2023/03/19 00:31:28;;;;;;;7.45;3.60;;;;;;;;;;5061587;28;20063;-86
2023/03/19 00:33:56;;;;;;;6.10;3.30;;;;;;;;;;5080120;28;20058;-86
2023/03/19 00:36:24;;;;;;;7.57;3.60;;;;;;;;;;5078417;28;20378;-88
2023/03/19 00:38:50;;;;;;;8.27;3.88;;;;;;;;;;5078959;28;20119;-86
2023/03/19 00:41:17;;;;;;;11.35;4.22;;;;;;;;;;5079165;28;20056;-86
2023/03/19 00:43:43;;;;;;;11.77;5.68;;;;;;;;;;5080836;28;20036;-86
2023/03/19 00:46:09;;;;;;;13.43;6.75;;;;;;;;;;5080790;28;20166;-86
2023/03/19 00:48:34;;;;;;;8.32;4.45;;;;;;;;;;5081129;28;20044;-87
2023/03/19 00:51:03;;;;;;;11.02;4.53;;;;;;;;;;5080600;28;20033;-86
2023/03/19 00:53:28;;;;;;;10.57;5.00;;;;;;;;;;5083063;28;20032;-87
2023/03/19 00:55:54;;;;;;;11.20;4.95;;;;;;;;;;5075797;28;20098;-87
2023/03/19 00:58:19;;;;;;;15.65;7.30;;;;;;;;;;5077112;28;20052;-86
2023/03/19 01:00:45;;;;;;;18.95;8.25;;;;;;;;;;5078795;28;20052;-86
2023/03/19 01:03:13;;;;;;;8.88;4.72;;;;;;;;;;5077472;28;20408;-88
2023/03/19 01:05:38;;;;;;;12.77;6.07;;;;;;;;;;5059217;28;20544;-86
2023/03/19 01:08:04;;;;;;;10.52;4.95;;;;;;;;;;5077807;28;20033;-87
2023/03/19 01:10:32;;;;;;;8.95;4.70;;;;;;;;;;5076019;28;20055;-86
2023/03/19 01:12:58;;;;;;;6.88;4.65;;;;;;;;;;5073737;28;20138;-87
2023/03/19 01:15:23;;;;;;;8.52;3.80;;;;;;;;;;5074833;28;20101;-87
2023/03/19 01:17:49;;;;;;;7.13;3.53;;;;;;;;;;5073912;28;20059;-88
2023/03/19 01:20:17;;;;;;;8.45;3.53;;;;;;;;;;5057927;28;20078;-88
2023/03/19 01:22:44;;;;;;;6.13;3.65;;;;;;;;;;5074326;28;20154;-86
2023/03/19 01:25:12;;;;;;;6.63;3.67;;;;;;;;;;5074188;28;20028;-87
2023/03/19 01:27:40;;;;;;;6.63;3.67;;;;;;;;;;5074973;28;20443;-86
2023/03/19 01:30:06;;;;;;;7.50;3.30;;;;;;;;;;5075559;28;20024;-86
2023/03/19 01:32:50;;;;;;;6.93;3.90;;;;;;;;;;5075385;28;20513;-86
2023/03/19 01:35:39;;;;;;;7.53;3.83;;;;;;;;;;5065912;28;20500;-86
2023/03/19 01:38:05;;;;;;;6.60;3.45;;;;;;;;;;5076268;28;20039;-87
2023/03/19 01:40:31;;;;;;;6.10;3.10;;;;;;;;;;5076878;28;20507;-86
2023/03/19 01:43:20;;;;;;;6.75;3.30;;;;;;;;;;5077157;28;20035;-85
2023/03/19 01:46:18;;;;;;;6.65;3.70;;;;;;;;;;5079361;28;20055;-88
2023/03/19 01:48:58;;;;;;;7.05;3.47;;;;;;;;;;5078686;28;20543;-87
2023/03/19 01:51:28;;;;;;;6.17;3.40;;;;;;;;;;5079159;28;20036;-87
2023/03/19 01:54:04;;;;;;;7.45;3.83;;;;;;;;;;5083044;28;20899;-87
2023/03/19 01:56:54;;;;;;;8.05;3.80;;;;;;;;;;5074615;28;20121;-87
2023/03/19 01:59:44;;;;;;;;;;;;;;;;;;5073907;28;20036;-84
2023/03/19 02:02:43;;;;;;;8.98;4.07;;;;;;;;;;5073386;28;19958;-86
2023/03/19 02:05:33;;;;;;;7.60;4.35;;;;;;;;;;5044415;28;20036;-86
2023/03/19 02:08:06;;;;;;;8.25;4.57;;;;;;;;;;5071530;28;20036;-86
2023/03/19 02:10:32;;;;;;;9.90;4.88;;;;;;;;;;5055792;28;20123;-85
2023/03/19 02:12:58;;;;;;;6.70;4.10;;;;;;;;;;5072425;28;20051;-86
2023/03/19 02:15:23;;;;;;;5.93;4.07;;;;;;;;;;5074177;28;20029;-86
2023/03/19 02:17:49;;;;;;;8.00;4.57;;;;;;;;;;5074306;28;20036;-89
2023/03/19 02:20:24;;;;;;;7.43;4.30;;;;;;;;;;5073099;28;20041;-87
2023/03/19 02:23:00;;;;;;;8.15;4.45;;;;;;;;;;5074357;28;20115;-87
2023/03/19 02:25:32;;;;;;;7.35;4.18;;;;;;;;;;5072765;28;20032;-87
2023/03/19 02:27:59;;;;;;;10.32;4.22;;;;;;;;;;5073527;28;20060;-89
2023/03/19 02:30:28;;;;;;;6.75;4.00;;;;;;;;;;5073703;28;20509;-86
2023/03/19 02:32:56;;;;;;;6.68;4.28;;;;;;;;;;5057978;28;20062;-86
2023/03/19 02:35:21;;;;;;;8.02;3.90;;;;;;;;;;5057203;28;20111;-86
2023/03/19 02:37:47;;;;;;;6.85;4.07;;;;;;;;;;5058187;28;20039;-86
2023/03/19 02:40:23;;;;;;;7.93;3.60;;;;;;;;;;5077114;28;20028;-86
2023/03/19 02:42:49;;;;;;;6.00;3.72;;;;;;;;;;5075864;28;20435;-87
2023/03/19 02:45:14;;;;;;;6.43;3.40;;;;;;;;;;5076338;28;20048;-86
2023/03/19 02:47:40;;;;;;;7.78;3.60;;;;;;;;;;5060653;28;20037;-86
2023/03/19 02:50:07;;;;;;;8.35;3.72;;;;;;;;;;5077780;28;20039;-87
2023/03/19 02:52:33;;;;;;;6.93;3.92;;;;;;;;;;5079608;28;20032;-86
2023/03/19 02:54:59;;;;;;;13.43;4.10;;;;;;;;;;5078885;28;20029;-86
2023/03/19 02:57:24;;;;;;;10.93;3.95;;;;;;;;;;5082872;28;20068;-86
2023/03/19 02:59:50;;;;;;;9.48;4.07;;;;;;;;;;5073252;28;20037;-86
2023/03/19 03:02:16;;;;;;;8.80;4.20;;;;;;;;;;5071164;28;20040;-86
2023/03/19 03:04:41;;;;;;;7.63;4.15;;;;;;;;;;5071208;28;20032;-85
2023/03/19 03:07:07;;;;;;;10.25;4.55;;;;;;;;;;5071698;28;20032;-86
2023/03/19 03:09:33;;;;;;;7.55;4.40;;;;;;;;;;5071692;28;20036;-87
2023/03/19 03:11:59;;;;;;;8.05;4.38;;;;;;;;;;5073218;28;20032;-86
2023/03/19 03:14:26;;;;;;;7.53;4.03;;;;;;;;;;5071704;28;20751;-87
2023/03/19 03:16:52;;;;;;;13.52;4.32;;;;;;;;;;5072108;28;20119;-86
2023/03/19 03:19:18;;;;;;;9.80;4.20;;;;;;;;;;5056025;28;20476;-86
2023/03/19 03:21:43;;;;;;;9.90;4.00;;;;;;;;;;5075953;28;20028;-86
2023/03/19 03:24:09;;;;;;;4.97;3.28;;;;;;;;;;5077672;28;20553;-87
2023/03/19 03:26:37;;;;;;;9.60;3.53;;;;;;;;;;5077766;28;20044;-86
2023/03/19 03:29:04;;;;;;;5.95;3.17;;;;;;;;;;5076604;28;20039;-86
2023/03/19 03:31:30;;;;;;;6.28;3.20;;;;;;;;;;5076494;28;20032;-88
2023/03/19 03:33:55;;;;;;;4.95;3.22;;;;;;;;;;5059922;28;20385;-87
2023/03/19 03:36:21;;;;;;;6.35;3.25;;;;;;;;;;5077438;28;20032;-87
2023/03/19 03:38:47;;;;;;;6.43;3.20;;;;;;;;;;5079795;28;20634;-87
2023/03/19 03:41:14;;;;;;;7.00;3.40;;;;;;;;;;5062391;28;20092;-87
2023/03/19 03:43:39;;;;;;;6.07;3.80;;;;;;;;;;5078493;28;20051;-87
2023/03/19 03:46:07;;;;;;;8.80;3.70;;;;;;;;;;5078490;28;20042;-87
2023/03/19 03:48:34;;;;;;;6.03;3.75;;;;;;;;;;5079661;28;20028;-86
2023/03/19 03:51:00;;;;;;;6.00;3.28;;;;;;;;;;5063404;28;20052;-87
2023/03/19 03:53:27;;;;;;;8.25;3.35;;;;;;;;;;5081266;28;20095;-86
2023/03/19 03:55:53;;;;;;;4.55;2.83;;;;;;;;;;5080721;28;20385;-87
2023/03/19 03:58:22;;;;;;;10.88;3.47;;;;;;;;;;5082422;28;20404;-85
2023/03/19 04:00:48;;;;;;;6.53;3.65;;;;;;;;;;5082715;28;20123;-87
2023/03/19 04:03:14;;;;;;;6.82;3.22;;;;;;;;;;5075988;28;20112;-87
2023/03/19 04:05:40;;;;;;;5.60;2.90;;;;;;;;;;5074623;28;20115;-87
2023/03/19 04:08:06;;;;;;;8.18;3.05;;;;;;;;;;5075099;28;20094;-86
2023/03/19 04:10:34;;;;;;;5.95;2.97;;;;;;;;;;5058670;28;20032;-86
2023/03/19 04:13:00;;;;;;;6.75;3.28;;;;;;;;;;5074856;28;20032;-88
2023/03/19 04:15:27;;;;;;;6.28;2.90;;;;;;;;;;5074554;28;20035;-86
2023/03/19 04:17:55;;;;;;;5.00;2.80;;;;;;;;;;5075117;28;20063;-86
2023/03/19 04:20:22;;;;;;;4.57;2.65;;;;;;;;;;5074864;28;20504;-87
2023/03/19 04:22:48;;;;;;;5.13;2.40;;;;;;;;;;5074924;28;20092;-87
2023/03/19 04:25:14;;;;;;;5.53;2.58;;;;;;;;;;5074877;28;20508;-87
2023/03/19 04:27:40;;;;;;;4.93;2.65;;;;;;;;;;5075476;28;20051;-86
2023/03/19 04:30:08;;;;;;;3.60;2.40;;;;;;;;;;5075362;28;20039;-87
2023/03/19 04:32:34;;;;;;;5.18;2.50;;;;;;;;;;5074473;28;20119;-86
2023/03/19 04:35:00;;;;;;;4.40;2.50;;;;;;;;;;5097145;22;20105;-85
2023/03/19 04:37:25;;;;;;;5.70;2.47;;;;;;;;;;5082041;28;20040;-85
2023/03/19 04:39:53;;;;;;;6.25;2.50;;;;;;;;;;5080966;28;20043;-84
2023/03/19 04:42:19;;;;;;;4.50;2.60;;;;;;;;;;5064342;28;20091;-84
2023/03/19 04:44:54;;;;;;;4.90;2.58;;;;;;;;;;5065074;28;20032;-86
2023/03/19 04:47:21;;;;;;;4.22;2.22;;;;;;;;;;5080817;28;20036;-83
2023/03/19 04:49:51;;;;;;;9.50;2.75;;;;;;;;;;5081387;28;20107;-85
2023/03/19 04:52:18;;;;;;;5.38;2.70;;;;;;;;;;5064237;28;20028;-84
2023/03/19 04:54:44;;;;;;;5.50;2.40;;;;;;;;;;5079986;28;20485;-85
2023/03/19 04:57:10;;;;;;;5.28;2.25;;;;;;;;;;5080834;28;20035;-85
2023/03/19 04:59:40;;;;;;;5.18;2.90;;;;;;;;;;5081083;28;20500;-86
2023/03/19 05:02:07;;;;;;;4.97;2.28;;;;;;;;;;5080254;28;20036;-84
2023/03/19 05:04:34;;;;;;;7.13;2.58;;;;;;;;;;5079793;28;20050;-85
2023/03/19 05:07:05;;;;;;;6.13;2.38;;;;;;;;;;5079616;28;20036;-84
2023/03/19 05:09:31;;;;;;;3.55;2.30;;;;;;;;;;5080509;28;20032;-85
2023/03/19 05:11:57;;;;;;;4.22;2.45;;;;;;;;;;5080304;28;20096;-86
2023/03/19 05:14:24;;;;;;;4.70;2.58;;;;;;;;;;5079132;28;20031;-84
2023/03/19 05:17:14;;;;;;;7.50;2.67;;;;;;;;;;5065910;28;20064;-85
2023/03/19 05:20:01;;;;;;;7.20;2.60;;;;;;;;;;5073526;28;20086;-84
2023/03/19 05:22:31;;;;;;;6.78;2.30;;;;;;;;;;5078921;28;20507;-85
2023/03/19 05:24:57;;;;;;;5.18;2.30;;;;;;;;;;5078733;28;20048;-85
2023/03/19 05:27:24;;;;;;;4.28;2.40;;;;;;;;;;5078890;28;20032;-83
2023/03/19 05:30:06;;;;;;;4.15;2.28;;;;;;;;;;5078369;28;20056;-84
2023/03/19 05:32:39;;;;;;;5.70;2.35;;;;;;;;;;5079650;28;20044;-85
2023/03/19 05:35:10;;;;;;;4.18;2.20;;;;;;;;;;5063463;28;20060;-86
2023/03/19 05:37:37;;;;;;;4.90;2.30;;;;;;;;;;5063199;28;20540;-84
2023/03/19 05:40:02;;;;;;;5.78;2.65;;;;;;;;;;5079343;28;20020;-85
2023/03/19 05:42:28;;;;;;;4.50;2.92;;;;;;;;;;5078556;28;20029;-84
2023/03/19 05:44:56;;;;;;;6.97;2.50;;;;;;;;;;5078023;28;20028;-85
2023/03/19 05:47:25;;;;;;;4.20;2.40;;;;;;;;;;5078384;28;20090;-85
2023/03/19 05:49:53;;;;;;;8.30;2.63;;;;;;;;;;5061533;28;20032;-84
2023/03/19 05:52:20;;;;;;;6.97;2.60;;;;;;;;;;5061597;28;20170;-86
2023/03/19 05:54:48;;;;;;;12.20;7.03;;;;;;;;;;5079050;28;20487;-85
2023/03/19 05:57:29;;;;;;;4.78;2.25;;;;;;;;;;5064708;28;20052;-85
2023/03/19 06:00:05;;;;;;;7.65;3.08;;;;;;;;;;5063933;28;20044;-85
2023/03/19 06:02:31;;;;;;;3.88;2.33;;;;;;;;;;5080394;28;20400;-86
2023/03/19 06:05:16;;;;;;;5.18;2.58;;;;;;;;;;5081066;28;20041;-85
2023/03/19 06:07:42;;;;;;;4.30;2.83;;;;;;;;;;5079829;28;20059;-87
2023/03/19 06:10:16;;;;;;;5.03;2.47;;;;;;;;;;5082136;28;20553;-86
2023/03/19 06:12:44;;;;;;;5.45;2.53;;;;;;;;;;5081691;28;20571;-85
2023/03/19 06:15:41;;;;;;;4.35;2.58;;;;;;;;;;5065327;28;20104;-85
2023/03/19 06:18:23;;;;;;;7.05;3.25;;;;;;;;;;5065826;28;20033;-86
2023/03/19 06:20:48;;;;;;;8.38;3.05;;;;;;;;;;5080127;28;20050;-86
2023/03/19 06:23:15;;;;;;;7.47;4.00;;;;;;;;;;5082062;28;20020;-85
2023/03/19 06:25:41;;;;;;;7.53;4.00;;;;;;;;;;5079323;28;20195;-85
2023/03/19 06:28:07;;;;;;;10.40;4.40;;;;;;;;;;5079065;28;20028;-84
2023/03/19 06:30:37;;;;;;;7.95;3.92;;;;;;;;;;5080191;28;20044;-87
2023/03/19 06:33:13;;;;;;;7.07;3.03;;;;;;;;;;5080425;28;20097;-86
2023/03/19 06:35:39;;;;;;;5.78;3.83;;;;;;;;;;5079591;28;20058;-85
2023/03/19 06:38:05;;;;;;;8.25;3.95;;;;;;;;;;5080158;28;20032;-86
2023/03/19 06:40:30;;;;;;;9.20;3.88;;;;;;;;;;5081575;28;20090;-86
2023/03/19 06:42:56;;;;;;;8.93;3.60;;;;;;;;;;5080838;28;20399;-85
2023/03/19 06:45:21;;;;;;;5.43;2.85;;;;;;;;;;5079452;28;20078;-82
2023/03/19 06:47:47;;;;;;;6.60;2.70;;;;;;;;;;5063420;28;20040;-82
2023/03/19 06:50:15;;;;;;;9.93;4.68;;;;;;;;;;5080059;28;20036;-83
2023/03/19 06:52:41;;;;;;;9.07;3.78;;;;;;;;;;5081476;28;20032;-84
2023/03/19 06:55:07;;;;;;;6.85;2.80;;;;;;;;;;5079736;28;20374;-85
2023/03/19 06:57:34;;;;;;;5.00;2.78;;;;;;;;;;5063717;28;20032;-83
2023/03/19 07:00:00;;;;;;;5.38;3.00;;;;;;;;;;5078988;28;20032;-83
2023/03/19 07:02:26;;;;;;;6.85;3.00;;;;;;;;;;5079168;28;20458;-83
2023/03/19 07:04:52;;;;;;;4.32;2.60;;;;;;;;;;5079425;28;20039;-83
2023/03/19 07:07:18;;;;;;;8.43;2.88;;;;;;;;;;5081595;28;20036;-83
2023/03/19 07:09:43;;;;;;;5.38;3.38;;;;;;;;;;5080552;28;20036;-83
2023/03/19 07:12:09;;;;;;;6.00;3.03;;;;;;;;;;5080107;28;20040;-83
2023/03/19 07:14:34;;;;;;;6.00;3.33;;;;;;;;;;5076094;28;20090;-85
2023/03/19 07:17:00;;;;;;;5.25;3.10;;;;;;;;;;5077968;28;20227;-83
2023/03/19 07:19:26;;;;;;;8.15;4.30;;;;;;;;;;5079024;28;20477;-84
2023/03/19 07:21:51;;;;;;;6.55;3.90;;;;;;;;;;5077899;28;20281;-83
2023/03/19 07:24:17;;;;;;;6.85;3.10;;;;;;;;;;5075955;28;20033;-83
2023/03/19 07:26:42;;;;;;;7.82;2.92;;;;;;;;;;5075971;28;20036;-83
2023/03/19 07:29:09;;;;;;;5.82;2.95;;;;;;;;;;5076759;28;20369;-82
2023/03/19 07:31:35;;;;;;;7.28;3.22;;;;;;;;;;5059359;28;20032;-86
2023/03/19 07:34:01;;;;;;;4.97;2.72;;;;;;;;;;5077662;28;20594;-81
2023/03/19 07:36:26;;;;;;;5.65;2.80;;;;;;;;;;5060341;28;20059;-83
2023/03/19 07:38:52;;;;;;;6.90;2.83;;;;;;;;;;5077165;28;20040;-84
2023/03/19 07:41:17;;;;;;;5.82;2.92;;;;;;;;;;5079133;28;20037;-83
2023/03/19 07:43:43;;;;;;;6.65;3.10;;;;;;;;;;5077779;28;20032;-84
2023/03/19 07:46:11;;;;;;;9.45;3.05;;;;;;;;;;5076825;28;20075;-84
2023/03/19 07:48:37;;;;;;;6.30;2.67;;;;;;;;;;5076748;28;20036;-83
2023/03/19 07:51:02;;;;;;;8.13;2.80;;;;;;;;;;5076456;28;20073;-84
2023/03/19 07:53:28;;;;;;;6.53;2.95;;;;;;;;;;5077652;28;20041;-86
2023/03/19 07:55:54;;;;;;;7.15;3.13;;;;;;;;;;5078774;28;20059;-84
2023/03/19 07:58:19;;;;;;;5.28;3.00;;;;;;;;;;5076841;28;20499;-83
2023/03/19 08:00:45;;;;;;;8.15;3.13;;;;;;;;;;5076866;28;20040;-82
2023/03/19 08:03:11;;;;;;;5.15;2.92;;;;;;;;;;5075532;28;20029;-87
2023/03/19 08:05:37;;;;;;;9.23;3.20;;;;;;;;;;5061273;28;20405;-85
2023/03/19 08:08:02;;;;;;;5.55;3.00;;;;;;;;;;5066092;28;20044;-84
2023/03/19 08:10:28;;;;;;;5.60;2.83;;;;;;;;;;5082854;28;20060;-82
2023/03/19 08:12:54;;;;;;;5.22;2.75;;;;;;;;;;5087568;28;20040;-85
2023/03/19 08:15:20;;;;;;;8.05;2.97;;;;;;;;;;5063042;28;20447;-84
2023/03/19 08:17:45;;;;;;;4.95;2.53;;;;;;;;;;5076662;28;20036;-85
2023/03/19 08:20:15;;;;;;;4.70;2.90;;;;;;;;;;5084095;28;20057;-85
2023/03/19 08:22:41;;;;;;;5.15;2.83;;;;;;;;;;5066312;28;20040;-86
2023/03/19 08:25:08;;;;;;;7.05;3.20;;;;;;;;;;5082112;28;20032;-85
2023/03/19 08:27:36;;;;;;;4.75;2.80;;;;;;;;;;5084213;28;20062;-85
2023/03/19 08:30:07;;;;;;;4.68;2.50;;;;;;;;;;5081732;28;20124;-85
2023/03/19 08:32:33;;;;;;;7.10;3.10;;;;;;;;;;5085851;28;20043;-86
2023/03/19 08:34:59;;;;;;;4.50;2.78;;;;;;;;;;5084826;28;20021;-86
2023/03/19 08:37:25;;;;;;;5.28;2.80;;;;;;;;;;5082803;28;20032;-85
2023/03/19 08:39:51;;;;;;;6.35;2.97;;;;;;;;;;5081876;28;20493;-86
2023/03/19 08:42:17;;;;;;;5.93;2.80;;;;;;;;;;5084294;28;20107;-85
2023/03/19 08:44:43;;;;;;;4.88;2.53;;;;;;;;;;5062249;28;20130;-85
2023/03/19 08:47:08;;;;;;;7.00;2.70;;;;;;;;;;5066003;28;20500;-87
2023/03/19 08:49:34;;;;;;;7.82;3.00;;;;;;;;;;5065435;28;20037;-86
2023/03/19 08:51:59;;;;;;;6.65;2.92;;;;;;;;;;5083551;28;20035;-85
2023/03/19 08:54:25;;;;;;;7.22;2.90;;;;;;;;;;5083786;28;20028;-86
2023/03/19 08:56:51;;;;;;;5.05;2.78;;;;;;;;;;5081444;28;20066;-85
2023/03/19 08:59:16;;;;;;;6.18;2.60;;;;;;;;;;5082587;28;20131;-86
2023/03/19 09:01:43;;;;;;;5.00;2.45;;;;;;;;;;5082584;28;20086;-85
2023/03/19 09:04:08;;;;;;;7.43;2.50;;;;;;;;;;5079940;28;20029;-86
2023/03/19 09:06:34;;;;;;;5.38;2.50;;;;;;;;;;5081730;28;20419;-84
2023/03/19 09:08:59;;;;;;;4.50;2.42;;;;;;;;;;5082155;28;20032;-87
2023/03/19 09:11:25;;;;;;;3.90;2.50;;;;;;;;;;5079204;28;20067;-88
2023/03/19 09:13:50;;;;;;;6.72;2.65;;;;;;;;;;5078015;28;20036;-89
2023/03/19 09:16:16;;;;;;;5.25;2.35;;;;;;;;;;5079484;28;20036;-87
2023/03/19 09:18:41;;;;;;;4.95;2.45;;;;;;;;;;5061932;28;20478;-89
2023/03/19 09:21:07;;;;;;;4.95;2.30;;;;;;;;;;5062175;28;20032;-89
2023/03/19 09:23:33;;;;;;;5.28;2.45;;;;;;;;;;5078619;28;20036;-88
2023/03/19 09:25:58;;;;;;;7.32;2.20;;;;;;;;;;5078454;28;20055;-87
2023/03/19 09:28:24;;;;;;;4.05;2.40;;;;;;;;;;5079103;28;20032;-88
2023/03/19 09:30:50;;;;;;;5.78;2.15;;;;;;;;;;5079950;28;20040;-85
2023/03/19 09:33:17;;;;;;;6.10;2.53;;;;;;;;;;5074976;28;20048;-87
2023/03/19 09:35:48;;;;;;;5.70;2.50;;;;;;;;;;5075072;28;20051;-87
2023/03/19 09:38:13;;;;;;;6.57;2.38;;;;;;;;;;5074850;28;20032;-89
2023/03/19 09:40:45;;;;;;;3.70;1.90;;;;;;;;;;5074451;28;20044;-87
2023/03/19 09:43:42;;;;;;;4.47;2.20;;;;;;;;;;5075478;28;20142;-86
2023/03/19 09:46:20;;;;;;;4.88;2.00;;;;;;;;;;5075038;28;20043;-87
2023/03/19 09:48:51;;;;;;;3.03;2.00;;;;;;;;;;5076832;28;20082;-86
2023/03/19 09:51:45;;;;;;;6.28;2.47;;;;;;;;;;5080711;28;20040;-88
2023/03/19 09:54:21;;;;;;;5.20;2.22;;;;;;;;;;5079141;28;20049;-87
2023/03/19 09:56:46;;;;;;;4.30;1.98;;;;;;;;;;5060854;28;20040;-87
2023/03/19 09:59:12;;;;;;;4.28;2.15;;;;;;;;;;5060250;28;20082;-87
2023/03/19 10:01:46;;;;;;;9.23;2.42;;;;;;;;;;5042616;28;20421;-87
2023/03/19 10:04:23;;;;;;;4.05;2.30;;;;;;;;;;5062736;28;20059;-87
2023/03/19 10:06:56;;;;;;;5.22;2.42;;;;;;;;;;5060569;28;20036;-88
2023/03/19 10:10:01;;;;;;;3.80;2.13;;;;;;;;;;5060788;28;20033;-86
2023/03/19 10:12:47;;;;;;;3.75;2.35;;;;;;;;;;5060049;28;20040;-85
2023/03/19 10:15:18;;;;;;;7.50;2.38;;;;;;;;;;5059753;28;20045;-86
2023/03/19 10:18:05;;;;;;;5.50;2.30;;;;;;;;;;5059703;28;20393;-87
2023/03/19 10:20:40;;;;;;;7.43;2.55;;;;;;;;;;5059643;28;20036;-85
2023/03/19 10:23:42;;;;;;;5.97;2.28;;;;;;;;;;5059177;28;20115;-85
2023/03/19 10:26:11;;;;;;;4.63;2.22;;;;;;;;;;5058328;28;20040;-87
2023/03/19 10:28:38;;;;;;;5.25;2.00;;;;;;;;;;5057550;28;20098;-87
2023/03/19 10:31:25;;;;;;;7.88;2.40;;;;;;;;;;5060011;28;20037;-85
2023/03/19 10:33:56;;;;;;;3.72;2.10;;;;;;;;;;5060333;28;20067;-86
2023/03/19 10:36:26;;;;;;;6.10;2.10;;;;;;;;;;5081288;23;20091;-86
2023/03/19 10:38:52;;;;;;;3.80;1.83;;;;;;;;;;5050908;28;20072;-84
2023/03/19 10:41:30;;;;;;;3.70;2.20;;;;;;;;;;5053929;28;20121;-86
2023/03/19 10:44:00;;;;;;;4.55;2.20;;;;;;;;;;5053696;28;20043;-86
2023/03/19 10:46:26;;;;;;;3.83;2.00;;;;;;;;;;5049105;28;20037;-87
2023/03/19 10:48:51;;;;;;;4.22;2.30;;;;;;;;;;5032199;28;20041;-84
2023/03/19 10:51:25;;;;;;;7.57;2.30;;;;;;;;;;5034078;28;20021;-85
2023/03/19 10:53:54;;;;;;;8.35;2.10;;;;;;;;;;5033684;28;20044;-86
2023/03/19 10:56:25;;;;;;;3.72;2.10;;;;;;;;;;5032380;28;20034;-86
2023/03/19 10:59:46;;;;;;;5.38;2.20;;;;;;;;;;5034710;28;20508;-85
2023/03/19 11:02:14;;;;;;;4.63;2.33;;;;;;;;;;5000318;28;20568;-85
2023/03/19 11:04:40;;;;;;;8.55;2.35;;;;;;;;;;5034532;28;20029;-85
2023/03/19 11:07:12;;;;;;;5.35;2.28;;;;;;;;;;5034063;28;20127;-87
2023/03/19 11:09:40;;;;;;;5.15;2.15;;;;;;;;;;5034440;28;20099;-85
2023/03/19 11:12:19;;;;;;;4.50;2.03;;;;;;;;;;5036147;28;20125;-84
2023/03/19 11:14:51;;;;;;;4.78;2.30;;;;;;;;;;5037993;28;20071;-87
2023/03/19 11:17:36;;;;;;;6.03;2.15;;;;;;;;;;5032998;28;20033;-86
2023/03/19 11:20:20;;;;;;;4.25;2.00;;;;;;;;;;5032050;28;20037;-88
2023/03/19 11:22:50;;;;;;;3.90;2.15;;;;;;;;;;5033566;28;20144;-87
2023/03/19 11:25:40;;;;;;;4.68;1.95;;;;;;;;;;5033093;28;20038;-87
2023/03/19 11:28:15;;;;;;;4.70;2.15;;;;;;;;;;5033059;28;20041;-83
2023/03/19 11:31:05;;;;;;;5.40;2.22;;;;;;;;;;5033067;28;20111;-85
2023/03/19 11:33:56;;;;;;;4.30;2.22;;;;;;;;;;5032878;28;20037;-84
2023/03/19 11:36:57;;;;;;;4.65;2.17;;;;;;;;;;5033384;28;20084;-85
2023/03/19 11:39:26;;;;;;;4.15;2.30;;;;;;;;;;4992147;28;20049;-85
2023/03/19 11:42:22;;;;;;;3.28;1.90;;;;;;;;;;5029211;28;20041;-85
2023/03/19 11:45:00;;;;;;;5.25;2.35;;;;;;;;;;5035594;28;20033;-87
2023/03/19 11:48:03;;;;;;;5.88;2.10;;;;;;;;;;5019782;28;20033;-86
2023/03/19 11:50:39;;;;;;;4.70;2.30;;;;;;;;;;5037006;28;20030;-87
2023/03/19 11:53:34;;;;;;;5.10;2.20;;;;;;;;;;5035708;28;20048;-86
2023/03/19 11:56:40;;;;;;;7.18;2.17;;;;;;;;;;5030875;28;20049;-85
2023/03/19 11:59:25;;;;;;;5.53;2.25;;;;;;;;;;5036327;28;20060;-86
2023/03/19 12:01:59;;;;;;;5.05;2.58;;;;;;;;;;5019576;28;20079;-87
2023/03/19 12:04:34;;;;;;;3.80;2.08;;;;;;;;;;5036090;28;20096;-85
2023/03/19 12:07:26;;;;;;;6.28;2.22;;;;;;;;;;5037157;28;20108;-86
2023/03/19 12:10:00;;;;;;;5.88;2.13;;;;;;;;;;5033384;28;20490;-85
2023/03/19 12:12:45;;;;;;;4.50;1.85;;;;;;;;;;5037155;28;20048;-85
2023/03/19 12:15:19;;;;;;;4.60;2.30;;;;;;;;;;5039045;28;20091;-84
2023/03/19 12:17:58;;;;;;;11.38;4.10;;;;;;;;;;5035298;28;20037;-84
2023/03/19 12:20:31;;;;;;;10.75;3.25;;;;;;;;;;5034940;28;20064;-84
2023/03/19 12:23:09;;;;;;;3.25;1.88;;;;;;;;;;5033537;28;20044;-84
2023/03/19 12:26:03;;;;;;;4.10;1.90;;;;;;;;;;5035076;28;20379;-85
2023/03/19 12:29:05;;;;;;;4.15;2.20;;;;;;;;;;5030606;28;20041;-86
2023/03/19 12:31:46;;;;;;;3.58;1.98;;;;;;;;;;5034468;28;20041;-84
2023/03/19 12:34:25;;;;;;;4.68;2.30;;;;;;;;;;5035598;28;20040;-85
2023/03/19 12:37:02;;;;;;;2.80;1.88;;;;;;;;;;5035928;28;20039;-86
2023/03/19 12:39:42;;;;;;;15.85;3.22;;;;;;;;;;5034085;28;20037;-87
2023/03/19 12:42:15;;;;;;;4.28;2.30;;;;;;;;;;5051817;28;20138;-87
2023/03/19 12:44:49;;;;;;;6.40;2.17;;;;;;;;;;5036004;28;20128;-85
2023/03/19 12:47:21;;;;;;;4.25;2.08;;;;;;;;;;5036911;28;20047;-85
2023/03/19 12:49:55;;;;;;;4.90;2.30;;;;;;;;;;5035176;28;20060;-84
2023/03/19 12:52:23;;;;;;;5.20;2.67;;;;;;;;;;5035323;28;20041;-88
2023/03/19 12:55:20;;;;;;;6.03;2.28;;;;;;;;;;5037335;28;20045;-85
2023/03/19 12:57:46;;;;;;;4.25;2.10;;;;;;;;;;5024214;28;20046;-87
2023/03/19 13:00:21;;;;;;;3.15;1.83;;;;;;;;;;5035793;28;20543;-86
2023/03/19 13:03:09;;;;;;;4.82;2.13;;;;;;;;;;5035309;28;20095;-87
2023/03/19 13:05:40;;;;;;;6.40;2.15;;;;;;;;;;5034259;28;20072;-87
2023/03/19 13:08:12;;;;;;;4.55;2.13;;;;;;;;;;5038447;28;20029;-86
2023/03/19 13:10:38;;;;;;;4.43;2.00;;;;;;;;;;5038176;28;20038;-86
2023/03/19 13:13:30;;;;;;;4.25;2.17;;;;;;;;;;5042065;28;20045;-87
2023/03/19 13:16:18;;;;;;;7.82;2.45;;;;;;;;;;5031909;28;20045;-83
2023/03/19 13:18:53;;;;;;;5.18;2.60;;;;;;;;;;5034114;28;20037;-87
2023/03/19 13:21:18;;;;;;;4.05;1.98;;;;;;;;;;5037007;28;20167;-89
2023/03/19 13:23:46;;;;;;;4.25;2.15;;;;;;;;;;5037492;28;20658;-86
2023/03/19 13:26:13;;;;;;;4.88;2.05;;;;;;;;;;5036188;28;20033;-87
2023/03/19 13:28:57;;;;;;;5.15;2.40;;;;;;;;;;5036055;28;20509;-86
2023/03/19 13:31:25;;;;;;;4.40;2.65;;;;;;;;;;5036498;28;20029;-86
2023/03/19 13:34:06;;;;;;;3.30;2.20;;;;;;;;;;5036027;28;20044;-86
2023/03/19 13:36:38;;;;;;;4.22;2.17;;;;;;;;;;5035156;28;20116;-85
2023/03/19 13:39:13;;;;;;;7.30;3.08;;;;;;;;;;5035196;28;20083;-87
2023/03/19 13:41:40;;;;;;;6.78;3.10;;;;;;;;;;5033929;28;20112;-87
2023/03/19 13:44:21;;;;;;;7.00;3.00;;;;;;;;;;5033326;28;20470;-86
2023/03/19 13:46:47;;;;;;;5.20;2.20;;;;;;;;;;5035104;28;20037;-86
2023/03/19 13:49:34;;;;;;;5.13;2.38;;;;;;;;;;5033359;28;20041;-86
2023/03/19 13:52:00;;;;;;;7.30;3.17;;;;;;;;;;5033668;28;20049;-84
2023/03/19 13:54:38;;;;;;;10.85;3.22;;;;;;;;;;5034325;28;20099;-88
2023/03/19 13:57:09;;;;;;;9.02;5.05;;;;;;;;;;5035314;28;20034;-84
2023/03/19 13:59:35;;;;;;;4.70;2.80;;;;;;;;;;5035996;28;20072;-85
2023/03/19 14:02:23;;;;;;;6.93;2.70;;;;;;;;;;5036604;28;20051;-86
2023/03/19 14:04:49;;;;;;;4.60;2.20;;;;;;;;;;5032313;28;20116;-85
2023/03/19 14:07:20;;;;;;;4.47;2.80;;;;;;;;;;5033810;28;20041;-86
2023/03/19 14:09:48;;;;;;;4.40;2.70;;;;;;;;;;5035140;28;20447;-87
2023/03/19 14:12:16;;;;;;;5.88;2.70;;;;;;;;;;5034650;28;20037;-87
2023/03/19 14:15:17;;;;;;;5.63;2.45;;;;;;;;;;5038973;28;20021;-84
2023/03/19 14:17:56;;;;;;;6.55;3.28;;;;;;;;;;5006185;28;20046;-87
2023/03/19 14:20:25;;;;;;;5.15;2.60;;;;;;;;;;5022729;28;20041;-86
2023/03/19 14:23:15;;;;;;;5.78;2.60;;;;;;;;;;5032813;28;20510;-88
2023/03/19 14:25:51;;;;;;;6.00;2.88;;;;;;;;;;5032792;28;20041;-87
2023/03/19 14:28:20;;;;;;;6.80;3.10;;;;;;;;;;5032507;28;20675;-84
2023/03/19 14:30:48;;;;;;;5.68;3.17;;;;;;;;;;5032630;28;20040;-87
2023/03/19 14:33:33;;;;;;;6.10;2.85;;;;;;;;;;5032784;28;20490;-85
2023/03/19 14:36:03;;;;;;;4.13;2.65;;;;;;;;;;5032512;28;20497;-87
2023/03/19 14:38:48;;;;;;;5.85;2.85;;;;;;;;;;5033397;28;20044;-87
2023/03/19 14:41:18;;;;;;;4.25;2.60;;;;;;;;;;5032432;28;20053;-87
2023/03/19 14:44:11;;;;;;;5.55;2.47;;;;;;;;;;5033321;28;20091;-87
2023/03/19 14:47:03;;;;;;;4.88;2.45;;;;;;;;;;5031602;28;20043;-87
2023/03/19 14:49:44;;;;;;;8.30;2.55;;;;;;;;;;5032120;28;20033;-88
2023/03/19 14:52:13;;;;;;;9.05;3.15;;;;;;;;;;5048155;28;20037;-87
2023/03/19 14:54:49;;;;;;;11.18;5.35;;;;;;;;;;5032694;28;20048;-87
2023/03/19 14:57:17;;;;;;;6.63;2.58;;;;;;;;;;5033008;28;20064;-87
2023/03/19 14:59:42;;;;;;;5.93;2.30;;;;;;;;;;5033331;28;20112;-87
2023/03/19 15:02:29;;;;;;;6.93;2.60;;;;;;;;;;5031940;28;20116;-87
2023/03/19 15:04:54;;;;;;;7.00;2.30;;;;;;;;;;5033037;28;20041;-87
2023/03/19 15:07:28;;;;;;;3.50;2.03;;;;;;;;;;5031248;28;20060;-88
2023/03/19 15:09:54;;;;;;;4.80;1.90;;;;;;;;;;5033006;28;20449;-87